Time;durP1;ratioP1;P1;durP2;ratioP2;P2;SDS_P1;SDS_P2;PMS_P1;PMS_P2;Temp;Humidity;BMP_temperature;BMP_pressure;BME280_temperature;BME280_humidity;BME280_pressure;Samples;Min_cycle;Max_cycle;Signal;HPM_P1;HPM_P2
2022/06/09 00:01:37;;;;;;;8.20;2.50;;;17.80;99.90;;;;;;5046650;28;20250;-35
2022/06/09 00:04:15;;;;;;;10.55;2.53;;;17.80;99.90;;;;;;5050762;28;20609;-35
2022/06/09 00:06:49;;;;;;;10.57;2.88;;;17.70;99.90;;;;;;5071412;28;20288;-35
2022/06/09 00:09:19;;;;;;;9.98;2.63;;;17.80;99.90;;;;;;5067909;28;20257;-35
2022/06/09 00:11:51;;;;;;;17.15;3.00;;;17.80;99.90;;;;;;5037067;28;20213;-35
2022/06/09 00:14:21;;;;;;;11.05;3.40;;;17.70;99.90;;;;;;5057621;28;20212;-35
2022/06/09 00:16:50;;;;;;;10.18;2.83;;;17.70;99.90;;;;;;5069456;28;20273;-35
2022/06/09 00:19:20;;;;;;;13.98;3.05;;;17.70;99.90;;;;;;5070782;28;20290;-35
2022/06/09 00:21:49;;;;;;;13.50;2.97;;;17.70;99.90;;;;;;5067744;28;20238;-35
2022/06/09 00:24:17;;;;;;;12.90;3.40;;;17.70;99.90;;;;;;5059256;28;20199;-35
2022/06/09 00:26:45;;;;;;;9.65;2.80;;;17.70;99.90;;;;;;5064359;28;20214;-35
2022/06/09 00:29:12;;;;;;;10.50;2.58;;;17.70;99.90;;;;;;5030787;28;20228;-35
2022/06/09 00:31:40;;;;;;;12.98;3.00;;;17.70;99.90;;;;;;5047769;28;20203;-35
2022/06/09 00:34:07;;;;;;;14.00;3.65;;;17.70;99.90;;;;;;5063669;28;20221;-35
2022/06/09 00:36:34;;;;;;;14.43;2.92;;;17.70;99.90;;;;;;5068243;28;20488;-34
2022/06/09 00:39:02;;;;;;;11.50;3.03;;;17.70;99.90;;;;;;5069854;28;20324;-35
2022/06/09 00:41:29;;;;;;;11.00;2.90;;;17.70;99.90;;;;;;5068698;28;20207;-35
2022/06/09 00:44:21;;;;;;;14.02;2.92;;;17.70;99.90;;;;;;5055404;28;20254;-35
2022/06/09 00:47:01;;;;;;;11.07;3.17;;;17.70;99.90;;;;;;5037244;28;20195;-35
2022/06/09 00:49:37;;;;;;;13.40;2.90;;;17.70;99.90;;;;;;5031265;28;20235;-35
2022/06/09 00:52:10;;;;;;;11.65;3.05;;;17.60;99.90;;;;;;5034074;28;20679;-34
2022/06/09 00:54:45;;;;;;;9.75;3.00;;;17.60;99.90;;;;;;5059546;28;20257;-35
2022/06/09 00:57:23;;;;;;;10.57;3.13;;;17.60;99.90;;;;;;5059629;28;20222;-35
2022/06/09 00:59:57;;;;;;;9.52;2.50;;;17.60;99.90;;;;;;5031719;28;20213;-35
2022/06/09 01:02:25;;;;;;;12.57;3.40;;;17.50;99.90;;;;;;5039543;28;20282;-34
2022/06/09 01:04:56;;;;;;;11.90;2.95;;;17.50;99.90;;;;;;5050469;28;20327;-35
2022/06/09 01:07:27;;;;;;;14.02;2.72;;;17.50;99.90;;;;;;5060076;28;20261;-34
2022/06/09 01:10:00;;;;;;;15.70;3.70;;;17.50;99.90;;;;;;5067959;28;20608;-34
2022/06/09 01:12:34;;;;;;;11.32;2.80;;;17.50;99.90;;;;;;5057368;28;20212;-35
2022/06/09 01:15:16;;;;;;;9.43;3.28;;;17.40;99.90;;;;;;5044145;28;20210;-35
2022/06/09 01:18:07;;;;;;;12.03;2.73;;;17.50;99.90;;;;;;5059867;28;20231;-34
2022/06/09 01:21:01;;;;;;;13.67;3.30;;;17.50;99.90;;;;;;5045262;28;20678;-34
2022/06/09 01:23:58;;;;;;;13.15;3.15;;;17.40;99.90;;;;;;5059047;28;20231;-35
2022/06/09 01:26:34;;;;;;;12.00;2.90;;;17.40;99.90;;;;;;5065246;28;20646;-34
2022/06/09 01:29:20;;;;;;;10.37;2.40;;;17.40;99.90;;;;;;5046706;28;20231;-34
2022/06/09 01:31:53;;;;;;;18.77;3.60;;;17.40;99.90;;;;;;5047529;28;20266;-35
2022/06/09 01:34:39;;;;;;;15.45;3.45;;;17.30;99.90;;;;;;5029345;28;20259;-35
2022/06/09 01:37:22;;;;;;;15.00;3.35;;;17.30;99.90;;;;;;5051813;28;20634;-34
2022/06/09 01:39:56;;;;;;;15.17;3.37;;;17.30;99.90;;;;;;5042351;28;20576;-34
2022/06/09 01:42:31;;;;;;;12.77;2.85;;;17.30;99.90;;;;;;5038089;28;20211;-35
2022/06/09 01:45:04;;;;;;;14.55;3.05;;;17.30;99.90;;;;;;5069104;28;20674;-34
2022/06/09 01:47:58;;;;;;;12.55;3.20;;;17.30;99.90;;;;;;5066353;28;20256;-34
2022/06/09 01:50:38;;;;;;;13.37;3.20;;;17.30;99.90;;;;;;5061265;28;20272;-35
2022/06/09 01:53:11;;;;;;;11.82;3.25;;;17.20;99.90;;;;;;5047536;28;20213;-35
2022/06/09 01:55:46;;;;;;;8.60;2.40;;;17.20;99.90;;;;;;5061280;28;20212;-35
2022/06/09 01:58:17;;;;;;;12.27;2.90;;;17.20;99.90;;;;;;5054150;28;20793;-35
2022/06/09 02:00:48;;;;;;;11.10;3.15;;;17.20;99.90;;;;;;5066757;28;20200;-35
2022/06/09 02:03:20;;;;;;;19.10;3.53;;;17.20;99.90;;;;;;5058307;28;20200;-34
2022/06/09 02:05:51;;;;;;;13.75;3.00;;;17.20;99.90;;;;;;5062451;28;20227;-35
2022/06/09 02:08:23;;;;;;;11.15;2.58;;;17.20;99.90;;;;;;5065817;28;20219;-35
2022/06/09 02:10:57;;;;;;;14.13;3.40;;;17.10;99.90;;;;;;5047552;28;20295;-34
2022/06/09 02:13:28;;;;;;;13.90;3.07;;;17.10;99.90;;;;;;5040693;28;20756;-35
2022/06/09 02:16:03;;;;;;;11.53;2.90;;;17.10;99.90;;;;;;5048250;28;20795;-34
2022/06/09 02:18:38;;;;;;;11.67;3.17;;;17.10;99.90;;;;;;5067223;28;20300;-34
2022/06/09 02:21:20;;;;;;;12.23;2.90;;;17.00;99.90;;;;;;5063417;28;21057;-35
2022/06/09 02:23:52;;;;;;;10.73;3.20;;;17.00;99.90;;;;;;5059826;28;20242;-34
2022/06/09 02:26:21;;;;;;;10.45;2.75;;;17.00;99.90;;;;;;5063954;28;20210;-34
2022/06/09 02:28:51;;;;;;;11.18;2.80;;;17.00;99.90;;;;;;5048292;28;20212;-34
2022/06/09 02:31:22;;;;;;;14.18;3.13;;;17.00;99.90;;;;;;5055195;28;20207;-34
2022/06/09 02:33:51;;;;;;;15.80;3.10;;;17.00;99.90;;;;;;5061714;28;20211;-34
2022/06/09 02:36:19;;;;;;;10.90;2.78;;;16.90;99.90;;;;;;5067995;28;20248;-35
2022/06/09 02:38:46;;;;;;;12.70;2.80;;;16.90;99.90;;;;;;5066579;28;20219;-34
2022/06/09 02:41:14;;;;;;;12.18;2.80;;;16.90;99.90;;;;;;5068331;28;20195;-36
2022/06/09 02:43:45;;;;;;;10.32;2.83;;;16.90;99.90;;;;;;5039945;28;20267;-34
2022/06/09 02:46:12;;;;;;;11.50;2.42;;;16.80;99.90;;;;;;5030788;28;20300;-35
2022/06/09 02:48:41;;;;;;;11.48;2.88;;;16.80;99.90;;;;;;5053087;28;20261;-34
2022/06/09 02:51:25;;;;;;;15.38;2.60;;;16.80;99.90;;;;;;5068102;28;20616;-35
2022/06/09 02:53:57;;;;;;;9.63;2.80;;;16.80;99.90;;;;;;5047422;28;20213;-34
2022/06/09 02:56:25;;;;;;;14.93;3.43;;;16.70;99.90;;;;;;5045739;28;20298;-34
2022/06/09 02:58:53;;;;;;;16.07;3.37;;;16.70;99.90;;;;;;5056794;28;20773;-34
2022/06/09 03:01:21;;;;;;;9.37;2.73;;;16.70;99.90;;;;;;5039223;28;20396;-34
2022/06/09 03:03:50;;;;;;;12.67;3.13;;;16.70;99.90;;;;;;5038897;28;20217;-35
2022/06/09 03:06:18;;;;;;;11.33;2.90;;;16.70;99.90;;;;;;5026006;28;20243;-34
2022/06/09 03:08:45;;;;;;;11.47;2.57;;;16.60;99.90;;;;;;5052759;28;20273;-34
2022/06/09 03:11:13;;;;;;;11.43;3.37;;;16.60;99.90;;;;;;5029274;28;20643;-34
2022/06/09 03:13:43;;;;;;;13.80;3.67;;;16.60;99.90;;;;;;5038270;28;20340;-34
2022/06/09 03:16:13;;;;;;;10.68;3.10;;;16.60;99.90;;;;;;5046944;28;20216;-34
2022/06/09 03:18:48;;;;;;;10.93;3.00;;;16.60;99.90;;;;;;5057787;28;20277;-34
2022/06/09 03:21:16;;;;;;;12.60;3.30;;;16.50;99.90;;;;;;5043835;28;20203;-34
2022/06/09 03:23:46;;;;;;;12.77;3.40;;;16.50;99.90;;;;;;5053707;28;20211;-34
2022/06/09 03:26:13;;;;;;;12.10;3.53;;;16.50;99.90;;;;;;5067734;28;20685;-34
2022/06/09 03:28:41;;;;;;;11.13;3.50;;;16.40;99.90;;;;;;5060490;28;20523;-34
2022/06/09 03:31:08;;;;;;;15.57;3.03;;;16.40;99.90;;;;;;5067316;28;20302;-34
2022/06/09 03:33:37;;;;;;;10.23;2.97;;;16.40;99.90;;;;;;5055966;28;20192;-34
2022/06/09 03:36:05;;;;;;;10.23;3.20;;;16.40;99.90;;;;;;5027872;28;20373;-34
2022/06/09 03:38:32;;;;;;;10.90;2.97;;;16.40;99.90;;;;;;5046932;28;20238;-34
2022/06/09 03:40:59;;;;;;;12.93;3.20;;;16.40;99.90;;;;;;5067610;28;20227;-34
2022/06/09 03:43:27;;;;;;;11.30;3.10;;;16.40;99.90;;;;;;5057037;28;20206;-34
2022/06/09 03:45:55;;;;;;;14.30;3.07;;;16.40;99.90;;;;;;5064996;28;20218;-34
2022/06/09 03:48:25;;;;;;;11.20;3.30;;;16.40;99.90;;;;;;5066296;28;20630;-34
2022/06/09 03:50:52;;;;;;;12.47;3.00;;;16.40;99.90;;;;;;5064212;28;20215;-34
2022/06/09 03:53:19;;;;;;;10.43;2.80;;;16.40;99.90;;;;;;5038695;28;20203;-34
2022/06/09 03:55:49;;;;;;;15.93;3.50;;;16.30;99.90;;;;;;5053112;28;20307;-34
2022/06/09 03:58:19;;;;;;;15.38;3.03;;;16.30;99.90;;;;;;5052137;28;20220;-34
2022/06/09 04:00:46;;;;;;;11.53;2.80;;;16.30;99.90;;;;;;5045333;28;20287;-34
2022/06/09 04:03:21;;;;;;;10.47;2.97;;;16.30;99.90;;;;;;5053982;28;20783;-34
2022/06/09 04:05:48;;;;;;;11.40;3.13;;;16.30;99.90;;;;;;5066866;28;20237;-34
2022/06/09 04:08:15;;;;;;;14.13;3.07;;;16.30;99.90;;;;;;5053626;28;20288;-38
2022/06/09 04:10:45;;;;;;;11.67;2.70;;;16.30;99.90;;;;;;5027796;28;20205;-35
2022/06/09 04:13:12;;;;;;;12.13;2.70;;;16.30;99.90;;;;;;5040362;28;20733;-34
2022/06/09 04:15:43;;;;;;;15.20;3.20;;;16.30;99.90;;;;;;5064813;28;20211;-34
2022/06/09 04:18:12;;;;;;;11.37;2.83;;;16.30;99.90;;;;;;5062732;28;20215;-34
2022/06/09 04:20:40;;;;;;;11.20;2.97;;;16.40;99.90;;;;;;5063304;28;20235;-34
2022/06/09 04:23:09;;;;;;;14.70;3.60;;;16.30;99.90;;;;;;5061924;28;20191;-34
2022/06/09 04:25:38;;;;;;;13.77;3.00;;;16.40;99.90;;;;;;5051626;28;20201;-34
2022/06/09 04:28:07;;;;;;;8.83;2.43;;;16.40;99.90;;;;;;5047234;28;20207;-34
2022/06/09 04:30:36;;;;;;;13.57;3.33;;;16.40;99.90;;;;;;5030060;28;20225;-35
2022/06/09 04:33:03;;;;;;;11.52;3.42;;;16.40;99.90;;;;;;5054449;28;20710;-35
2022/06/09 04:35:31;;;;;;;10.13;3.00;;;16.40;99.90;;;;;;5066859;28;20262;-34
2022/06/09 04:38:01;;;;;;;11.93;2.83;;;16.40;99.90;;;;;;5058986;28;20219;-35
2022/06/09 04:40:39;;;;;;;11.50;3.03;;;16.40;99.90;;;;;;5067060;28;20206;-35
2022/06/09 04:43:09;;;;;;;14.60;3.63;;;16.50;99.90;;;;;;5049359;28;20639;-34
2022/06/09 04:45:39;;;;;;;12.13;3.00;;;16.50;99.90;;;;;;5058682;28;20298;-34
2022/06/09 04:48:10;;;;;;;11.83;2.97;;;16.50;99.90;;;;;;5055023;28;20207;-34
2022/06/09 04:50:39;;;;;;;12.80;3.13;;;16.60;99.90;;;;;;5066871;28;20203;-34
2022/06/09 04:53:09;;;;;;;12.07;3.03;;;16.60;99.90;;;;;;5034423;28;20645;-35
2022/06/09 04:55:38;;;;;;;12.27;3.13;;;16.70;99.90;;;;;;5070312;28;20230;-34
2022/06/09 04:58:06;;;;;;;11.20;3.00;;;16.80;99.90;;;;;;5051780;28;20222;-34
2022/06/09 05:00:35;;;;;;;13.83;3.33;;;16.80;99.90;;;;;;5033742;28;20867;-34
2022/06/09 05:03:03;;;;;;;14.67;3.23;;;16.90;99.90;;;;;;5043606;28;20722;-34
2022/06/09 05:05:34;;;;;;;14.67;3.50;;;16.90;99.90;;;;;;5042579;28;20232;-34
2022/06/09 05:08:04;;;;;;;12.67;2.70;;;16.90;99.90;;;;;;5042774;28;20632;-34
2022/06/09 05:10:32;;;;;;;14.53;3.07;;;17.00;99.90;;;;;;5044601;28;20210;-34
2022/06/09 05:13:04;;;;;;;10.33;2.70;;;17.00;99.90;;;;;;5042413;28;20208;-34
2022/06/09 05:15:49;;;;;;;11.43;3.03;;;17.00;99.90;;;;;;5052213;28;20575;-34
2022/06/09 05:18:21;;;;;;;12.23;3.10;;;17.10;99.90;;;;;;5049203;28;20224;-34
2022/06/09 05:20:52;;;;;;;12.53;3.30;;;17.10;99.90;;;;;;5056032;28;20200;-34
2022/06/09 05:23:19;;;;;;;8.20;2.67;;;17.20;99.90;;;;;;5058842;28;20233;-34
2022/06/09 05:25:48;;;;;;;13.20;3.63;;;17.20;99.90;;;;;;5056643;28;20207;-34
2022/06/09 05:28:19;;;;;;;11.60;3.17;;;17.20;99.90;;;;;;5061388;28;20196;-34
2022/06/09 05:30:46;;;;;;;18.40;3.90;;;17.30;99.90;;;;;;5063277;28;20224;-35
2022/06/09 05:33:14;;;;;;;13.20;3.13;;;17.30;99.90;;;;;;5037302;28;20278;-35
2022/06/09 05:35:46;;;;;;;15.07;3.40;;;17.30;99.90;;;;;;5063062;28;20619;-35
2022/06/09 05:46:46;;;;;;;11.07;3.10;;;17.40;99.90;;;;;;5057378;28;20211;-34
2022/06/09 05:49:16;;;;;;;14.30;3.43;;;17.50;99.90;;;;;;5052881;28;20353;-43
2022/06/09 05:51:44;;;;;;;10.00;3.10;;;17.50;99.90;;;;;;5038975;28;20270;-43
2022/06/09 05:54:11;;;;;;;14.10;3.10;;;17.60;99.90;;;;;;5040926;28;20633;-44
2022/06/09 05:56:38;;;;;;;16.03;3.63;;;17.70;99.90;;;;;;5054911;28;20203;-43
2022/06/09 05:59:06;;;;;;;11.87;2.93;;;17.80;99.90;;;;;;5053369;28;20223;-43
2022/06/09 06:01:33;;;;;;;9.97;3.10;;;17.80;99.90;;;;;;5052091;28;20203;-43
2022/06/09 06:04:04;;;;;;;13.17;3.37;;;17.90;99.90;;;;;;5038855;28;20770;-43
2022/06/09 06:06:33;;;;;;;13.97;3.70;;;17.90;99.90;;;;;;5056122;28;20238;-43
2022/06/09 06:09:11;;;;;;;12.93;3.27;;;18.00;99.90;;;;;;5042898;28;20588;-43
2022/06/09 06:11:42;;;;;;;19.30;4.00;;;18.00;99.90;;;;;;5042004;28;20579;-43
2022/06/09 06:14:10;;;;;;;14.83;3.80;;;18.00;99.90;;;;;;5052483;28;20247;-43
2022/06/09 06:16:38;;;;;;;19.73;4.50;;;18.00;99.90;;;;;;5067467;28;20261;-43
2022/06/09 06:19:12;;;;;;;14.00;3.47;;;18.00;99.90;;;;;;5061973;28;20297;-44
2022/06/09 06:21:45;;;;;;;12.77;3.03;;;18.10;99.90;;;;;;5059096;28;20200;-43
2022/06/09 06:24:14;;;;;;;12.10;2.83;;;18.10;99.90;;;;;;5034374;28;20770;-43
2022/06/09 06:26:41;;;;;;;11.60;3.40;;;18.10;99.90;;;;;;5035391;28;20751;-43
2022/06/09 06:29:18;;;;;;;11.37;3.37;;;18.10;99.90;;;;;;5045294;28;20214;-43
2022/06/09 06:31:48;;;;;;;14.97;3.33;;;18.10;99.90;;;;;;5047187;28;20266;-43
2022/06/09 06:34:18;;;;;;;20.10;3.78;;;18.20;99.90;;;;;;5059598;28;20212;-43
2022/06/09 06:36:45;;;;;;;12.98;2.95;;;18.20;99.90;;;;;;5065249;28;20219;-43
2022/06/09 06:39:15;;;;;;;11.40;3.25;;;18.20;99.90;;;;;;5048674;28;20670;-43
2022/06/09 06:41:45;;;;;;;12.97;3.13;;;18.20;99.90;;;;;;5051736;28;20241;-43
2022/06/09 06:44:12;;;;;;;12.47;3.10;;;18.20;99.90;;;;;;5052530;28;20253;-43
2022/06/09 06:46:42;;;;;;;16.90;3.90;;;18.20;99.90;;;;;;5052248;28;20744;-43
2022/06/09 06:49:09;;;;;;;17.93;3.67;;;18.20;99.90;;;;;;5048343;28;20192;-43
2022/06/09 06:51:39;;;;;;;18.83;4.30;;;18.30;99.90;;;;;;5050003;28;20298;-43
2022/06/09 06:54:06;;;;;;;16.53;3.30;;;18.30;99.90;;;;;;5044835;28;20208;-43
2022/06/09 06:56:35;;;;;;;11.50;3.30;;;18.30;99.90;;;;;;5054083;28;20383;-43
2022/06/09 06:59:03;;;;;;;12.20;2.92;;;18.40;99.90;;;;;;5054228;28;20697;-43
2022/06/09 07:01:30;;;;;;;14.80;3.50;;;18.40;99.90;;;;;;5060613;28;20252;-43
2022/06/09 07:04:00;;;;;;;13.80;3.17;;;18.40;99.90;;;;;;5050461;28;20203;-43
2022/06/09 07:06:30;;;;;;;14.75;3.42;;;18.50;99.90;;;;;;5063198;28;20591;-43
2022/06/09 07:09:02;;;;;;;11.70;3.13;;;18.50;99.90;;;;;;5057302;28;20211;-45
2022/06/09 07:11:30;;;;;;;9.57;3.10;;;18.60;99.90;;;;;;5052551;28;20236;-44
2022/06/09 07:13:58;;;;;;;14.27;3.40;;;18.60;99.90;;;;;;5055522;28;20620;-43
2022/06/09 07:16:25;;;;;;;14.40;3.53;;;18.70;99.90;;;;;;5049941;28;20627;-43
2022/06/09 07:19:13;;;;;;;13.65;3.55;;;18.70;99.90;;;;;;5046693;28;20851;-44
2022/06/09 07:21:43;;;;;;;9.68;3.17;;;18.80;99.90;;;;;;5035507;28;20212;-43
2022/06/09 07:24:13;;;;;;;13.37;3.40;;;18.80;99.90;;;;;;5061379;28;20459;-43
2022/06/09 07:26:43;;;;;;;16.13;4.20;;;18.80;99.90;;;;;;5048683;28;20301;-43
2022/06/09 07:29:11;;;;;;;16.10;3.63;;;18.80;99.90;;;;;;5048167;28;20576;-43
2022/06/09 07:31:41;;;;;;;12.63;3.50;;;18.80;99.90;;;;;;5046708;28;20261;-43
2022/06/09 07:34:08;;;;;;;14.80;3.88;;;18.80;99.90;;;;;;5054703;28;20209;-43
2022/06/09 07:36:36;;;;;;;15.57;3.78;;;18.80;99.90;;;;;;5056327;28;20273;-43
2022/06/09 07:39:06;;;;;;;15.02;3.42;;;18.80;99.90;;;;;;5066201;28;20249;-43
2022/06/09 07:41:34;;;;;;;14.27;3.90;;;18.90;99.90;;;;;;5065017;28;20196;-43
2022/06/09 07:44:05;;;;;;;18.00;4.50;;;18.90;99.90;;;;;;5027919;28;20632;-44
2022/06/09 07:46:35;;;;;;;14.05;4.00;;;19.00;99.90;;;;;;5039564;28;20251;-43
2022/06/09 07:49:04;;;;;;;16.42;4.75;;;19.10;99.90;;;;;;5045174;28;20323;-43
2022/06/09 07:51:33;;;;;;;12.18;3.85;;;19.10;99.90;;;;;;5051968;28;20242;-43
2022/06/09 07:54:01;;;;;;;11.15;3.20;;;19.20;99.90;;;;;;5036649;28;20226;-43
2022/06/09 07:56:36;;;;;;;12.18;3.30;;;19.20;99.90;;;;;;5043243;28;20246;-43
2022/06/09 07:59:08;;;;;;;9.07;3.50;;;19.20;99.90;;;;;;5043578;28;20310;-43
2022/06/09 08:01:38;;;;;;;13.93;3.70;;;19.20;99.90;;;;;;5054953;28;20216;-43
2022/06/09 08:04:07;;;;;;;8.43;3.22;;;19.30;99.90;;;;;;5030440;28;21654;-43
2022/06/09 08:06:36;;;;;;;15.57;4.30;;;19.30;99.90;;;;;;5046786;28;20311;-43
2022/06/09 08:09:04;;;;;;;12.77;3.65;;;19.30;99.90;;;;;;5047545;28;20235;-43
2022/06/09 08:11:35;;;;;;;11.15;3.40;;;19.30;99.90;;;;;;5031841;28;20205;-35
2022/06/09 08:14:08;;;;;;;14.02;3.53;;;19.30;99.90;;;;;;5047187;28;20200;-35
2022/06/09 08:16:36;;;;;;;9.05;3.65;;;19.30;99.90;;;;;;5044453;28;20220;-34
2022/06/09 08:19:03;;;;;;;13.20;3.15;;;19.30;99.90;;;;;;5035232;28;20209;-35
2022/06/09 08:21:33;;;;;;;13.32;3.70;;;19.30;99.90;;;;;;5028578;28;20205;-35
2022/06/09 08:24:19;;;;;;;10.50;3.17;;;19.40;99.90;;;;;;5026903;28;20211;-34
2022/06/09 08:26:48;;;;;;;11.10;3.17;;;19.40;99.90;;;;;;5054018;28;20212;-34
2022/06/09 08:29:25;;;;;;;9.00;2.92;;;19.40;99.90;;;;;;5067171;28;20199;-35
2022/06/09 08:31:53;;;;;;;14.38;3.63;;;19.40;99.90;;;;;;5069820;28;20202;-34
2022/06/09 08:34:21;;;;;;;12.73;3.22;;;19.50;99.90;;;;;;5054165;28;20575;-35
2022/06/09 08:36:48;;;;;;;8.80;3.15;;;19.50;99.90;;;;;;5056101;28;20669;-35
2022/06/09 08:39:16;;;;;;;10.32;3.28;;;19.60;99.90;;;;;;5059270;28;20589;-35
2022/06/09 08:42:14;;;;;;;11.65;3.53;;;19.60;99.90;;;;;;5034607;28;20295;-35
2022/06/09 08:44:57;;;;;;;8.82;3.15;;;19.70;99.90;;;;;;5038383;28;20316;-34
2022/06/09 08:47:35;;;;;;;11.32;3.53;;;19.70;99.90;;;;;;5031273;28;20200;-35
2022/06/09 08:50:10;;;;;;;13.65;3.58;;;19.80;99.90;;;;;;5036017;28;20219;-34
2022/06/09 08:53:05;;;;;;;10.18;3.20;;;19.80;99.90;;;;;;5061914;28;20200;-34
2022/06/09 08:55:34;;;;;;;12.02;3.72;;;19.90;99.90;;;;;;5064332;28;20222;-34
2022/06/09 08:58:08;;;;;;;9.85;3.60;;;19.90;99.90;;;;;;5061520;28;20572;-34
2022/06/09 09:00:48;;;;;;;8.40;3.45;;;19.90;99.90;;;;;;5052995;28;20201;-35
2022/06/09 09:03:28;;;;;;;11.02;3.42;;;19.90;99.90;;;;;;5060792;28;20308;-35
2022/06/09 09:06:01;;;;;;;10.35;3.00;;;20.00;99.90;;;;;;5052300;28;20236;-35
2022/06/09 09:08:31;;;;;;;7.28;3.03;;;20.00;99.90;;;;;;5054354;28;20214;-34
2022/06/09 09:11:37;;;;;;;13.25;3.40;;;20.00;99.90;;;;;;5051343;28;20208;-35
2022/06/09 09:14:17;;;;;;;9.10;3.15;;;20.00;99.90;;;;;;5036210;28;20729;-35
2022/06/09 09:17:17;;;;;;;9.60;3.42;;;20.00;99.90;;;;;;5029824;28;20221;-35
2022/06/09 09:20:10;;;;;;;8.55;3.25;;;20.00;99.90;;;;;;5048173;28;20220;-35
2022/06/09 09:23:12;;;;;;;10.82;3.50;;;20.00;99.90;;;;;;5041392;28;20203;-35
2022/06/09 09:26:01;;;;;;;9.23;3.13;;;20.00;99.90;;;;;;5059386;28;20323;-35
2022/06/09 09:28:38;;;;;;;9.35;3.40;;;20.10;99.90;;;;;;5061942;28;20197;-35
2022/06/09 09:31:20;;;;;;;14.65;3.70;;;20.10;99.90;;;;;;5063295;28;20196;-35
2022/06/09 09:33:48;;;;;;;12.18;3.33;;;20.20;99.90;;;;;;5037100;28;20212;-35
2022/06/09 09:36:26;;;;;;;12.10;3.22;;;20.20;99.90;;;;;;5043762;28;21092;-35
2022/06/09 09:39:16;;;;;;;8.75;3.13;;;20.30;99.90;;;;;;5052960;28;20284;-35
2022/06/09 09:41:47;;;;;;;9.90;3.53;;;20.40;99.90;;;;;;5052676;28;20763;-35
2022/06/09 09:44:22;;;;;;;8.75;3.30;;;20.50;99.90;;;;;;5052537;28;20209;-35
2022/06/09 09:47:01;;;;;;;12.82;3.67;;;20.50;99.90;;;;;;5056656;28;20208;-35
2022/06/09 09:49:38;;;;;;;8.73;3.47;;;20.50;99.90;;;;;;5051973;28;20207;-35
2022/06/09 09:52:39;;;;;;;12.25;3.85;;;20.60;99.90;;;;;;5034289;28;20229;-35
2022/06/09 09:55:29;;;;;;;8.77;3.50;;;20.60;99.90;;;;;;5059770;28;20205;-35
2022/06/09 09:58:29;;;;;;;8.20;3.55;;;20.70;99.90;;;;;;5064084;28;20261;-34
2022/06/09 10:01:02;;;;;;;11.35;3.33;;;20.70;99.90;;;;;;5052863;28;20586;-35
2022/06/09 10:09:54;;;;;;;4.63;2.03;;;20.70;99.90;;;;;;5041954;28;20207;-34
2022/06/09 10:12:31;;;;;;;7.85;2.63;;;20.60;99.90;;;;;;5037517;28;20202;-34
2022/06/09 10:15:21;;;;;;;8.70;2.75;;;20.60;99.90;;;;;;5040532;28;20189;-35
2022/06/09 10:17:55;;;;;;;7.65;2.22;;;20.60;99.90;;;;;;5066661;28;20253;-33
2022/06/09 10:20:43;;;;;;;8.52;2.20;;;20.60;99.90;;;;;;5047979;28;20690;-34
2022/06/09 10:23:11;;;;;;;8.57;2.30;;;20.50;99.90;;;;;;5044752;28;20731;-34
2022/06/09 10:26:05;;;;;;;7.88;2.10;;;20.50;99.90;;;;;;5036830;28;20331;-33
2022/06/09 10:28:54;;;;;;;6.03;2.42;;;20.50;99.90;;;;;;5030042;28;20196;-34
2022/06/09 10:31:44;;;;;;;4.22;2.50;;;20.50;99.90;;;;;;5046988;28;20215;-34
2022/06/09 10:34:20;;;;;;;6.95;3.05;;;20.50;99.90;;;;;;5037931;28;20388;-34
2022/06/09 10:37:01;;;;;;;4.10;2.20;;;20.40;99.90;;;;;;5044566;28;20216;-34
2022/06/09 10:39:37;;;;;;;6.10;3.42;;;20.40;99.90;;;;;;5040622;28;20650;-33
2022/06/09 10:42:12;;;;;;;5.65;3.40;;;20.40;99.90;;;;;;5039588;28;20327;-34
2022/06/09 10:44:49;;;;;;;9.43;4.00;;;20.40;99.90;;;;;;5033456;28;20213;-44
2022/06/09 10:56:31;;;;;;;8.50;2.45;;;20.40;99.90;;;;;;5045469;28;20291;-34
2022/06/09 10:59:08;;;;;;;7.03;2.35;;;20.50;99.90;;;;;;5030167;28;20220;-35
2022/06/09 11:01:39;;;;;;;5.50;2.55;;;20.50;99.90;;;;;;5039741;28;20664;-34
2022/06/09 11:04:15;;;;;;;9.40;2.75;;;20.60;99.90;;;;;;5041516;28;20212;-35
2022/06/09 11:06:57;;;;;;;8.88;3.20;;;20.60;99.90;;;;;;5040093;28;20219;-35
2022/06/09 11:09:52;;;;;;;10.82;3.15;;;20.70;99.90;;;;;;5052706;28;20209;-35
2022/06/09 11:12:43;;;;;;;7.97;3.30;;;20.80;99.90;;;;;;5049094;28;20242;-34
2022/06/09 11:15:52;;;;;;;9.05;3.03;;;20.80;99.90;;;;;;5043627;28;20306;-35
2022/06/09 11:18:28;;;;;;;8.32;3.30;;;20.90;99.90;;;;;;5048263;28;20619;-35
2022/06/09 11:21:08;;;;;;;9.05;2.67;;;21.00;99.90;;;;;;5046060;28;20784;-34
2022/06/09 11:23:59;;;;;;;6.57;2.47;;;21.00;99.90;;;;;;5049843;28;20242;-35
2022/06/09 11:26:34;;;;;;;7.57;2.58;;;21.00;99.90;;;;;;5036487;28;20770;-35
2022/06/09 11:29:12;;;;;;;7.22;2.13;;;21.10;99.90;;;;;;5055932;28;20214;-35
2022/06/09 11:31:46;;;;;;;6.55;2.38;;;21.10;99.90;;;;;;5047437;28;20296;-35
2022/06/09 11:34:41;;;;;;;9.07;2.45;;;21.20;99.90;;;;;;5044754;28;20204;-34
2022/06/09 11:37:32;;;;;;;3.15;1.40;;;21.20;99.90;;;;;;5027862;28;20587;-34
2022/06/09 11:40:18;;;;;;;4.13;1.88;;;21.20;99.90;;;;;;5030069;28;20225;-34
2022/06/09 11:42:55;;;;;;;7.30;1.60;;;21.20;99.90;;;;;;5053909;28;20192;-35
2022/06/09 11:45:29;;;;;;;3.05;0.90;;;21.10;99.90;;;;;;5064572;28;20506;-34
2022/06/09 11:47:59;;;;;;;2.30;0.85;;;21.00;99.90;;;;;;5054218;28;20608;-35
2022/06/09 11:50:35;;;;;;;1.95;0.98;;;20.90;99.90;;;;;;5036504;28;20207;-35
2022/06/09 11:53:04;;;;;;;3.58;1.00;;;20.80;99.90;;;;;;5033271;28;20295;-34
2022/06/09 11:58:45;;;;;;;13.85;2.63;;;20.60;99.90;;;;;;5041672;28;20343;-34
2022/06/09 12:01:21;;;;;;;3.47;1.15;;;20.60;99.90;;;;;;5036856;28;20630;-34
2022/06/09 12:04:17;;;;;;;5.78;1.27;;;20.60;99.90;;;;;;5046982;28;20203;-34
2022/06/09 12:06:54;;;;;;;3.83;1.13;;;20.60;99.90;;;;;;5043115;28;20263;-34
2022/06/09 12:09:52;;;;;;;13.30;2.72;;;20.60;99.90;;;;;;5058667;28;20282;-34
2022/06/09 12:12:35;;;;;;;3.42;1.33;;;20.60;99.90;;;;;;5054827;28;20660;-34
2022/06/09 12:15:14;;;;;;;4.32;1.15;;;20.70;99.90;;;;;;5055337;28;20223;-34
2022/06/09 12:18:08;;;;;;;3.95;1.35;;;20.70;99.90;;;;;;5069915;28;20211;-34
2022/06/09 12:20:43;;;;;;;4.70;1.50;;;20.70;99.90;;;;;;5059432;28;20212;-35
2022/06/09 12:23:31;;;;;;;4.00;1.23;;;20.70;99.90;;;;;;5055055;28;20708;-35
2022/06/09 12:26:15;;;;;;;11.23;2.83;;;20.80;99.90;;;;;;5049660;28;20208;-34
2022/06/09 12:28:45;;;;;;;4.40;1.83;;;20.80;99.90;;;;;;5060661;28;20581;-34
2022/06/09 12:31:18;;;;;;;10.52;2.58;;;20.80;99.90;;;;;;5060326;28;20676;-35
2022/06/09 12:34:12;;;;;;;6.57;1.98;;;20.90;99.90;;;;;;5058233;28;20212;-34
2022/06/09 12:36:58;;;;;;;5.60;1.90;;;21.10;99.90;;;;;;5051139;28;20212;-35
2022/06/09 12:39:38;;;;;;;5.65;1.80;;;21.10;99.90;;;;;;5056682;28;20313;-34
2022/06/09 12:42:31;;;;;;;6.10;1.90;;;21.20;99.90;;;;;;5044152;28;20742;-34
2022/06/09 12:45:26;;;;;;;6.38;1.92;;;21.20;99.90;;;;;;5037553;28;20275;-35
2022/06/09 12:47:58;;;;;;;7.75;2.28;;;21.30;99.90;;;;;;5052703;28;20211;-35
2022/06/09 12:50:42;;;;;;;6.38;1.92;;;21.40;99.90;;;;;;5044295;28;20757;-35
2022/06/09 12:53:34;;;;;;;6.60;1.77;;;21.50;99.90;;;;;;5047253;28;20264;-35
2022/06/09 12:56:25;;;;;;;5.03;1.70;;;21.60;99.90;;;;;;5046909;28;20312;-34
2022/06/09 12:58:55;;;;;;;6.82;2.28;;;21.60;99.90;;;;;;5045877;28;20220;-35
2022/06/09 13:01:25;;;;;;;8.77;2.30;;;21.70;99.90;;;;;;5059624;28;20601;-34
2022/06/09 13:04:05;;;;;;;8.73;2.03;;;21.70;99.90;;;;;;5039113;28;20656;-34
2022/06/09 13:06:35;;;;;;;11.43;2.20;;;21.80;99.90;;;;;;5028045;28;20268;-34
2022/06/09 13:09:25;;;;;;;9.05;2.10;;;21.80;99.90;;;;;;5046063;28;20212;-35
2022/06/09 13:15:10;;;;;;;8.23;2.17;;;21.90;99.90;;;;;;5046851;28;20212;-34
2022/06/09 13:17:39;;;;;;;6.38;2.15;;;22.00;99.90;;;;;;5041194;28;20672;-34
2022/06/09 13:20:15;;;;;;;9.35;2.75;;;22.00;99.90;;;;;;5062597;28;20252;-34
2022/06/09 13:22:43;;;;;;;9.88;2.75;;;22.20;99.90;;;;;;5039507;28;20199;-34
2022/06/09 13:25:14;;;;;;;9.85;2.90;;;22.20;99.90;;;;;;5057061;28;20216;-34
2022/06/09 13:27:45;;;;;;;5.85;2.38;;;22.30;99.90;;;;;;5050034;28;20192;-34
2022/06/09 13:30:48;;;;;;;8.32;2.60;;;22.30;99.90;;;;;;5056042;28;20239;-35
2022/06/09 13:33:45;;;;;;;7.50;2.10;;;22.40;99.90;;;;;;5053035;28;20210;-35
2022/06/09 13:36:28;;;;;;;8.65;2.40;;;22.40;99.90;;;;;;5037561;28;20200;-34
2022/06/09 13:38:58;;;;;;;8.20;1.95;;;22.50;99.90;;;;;;5029639;28;20208;-34
2022/06/09 13:41:38;;;;;;;10.48;2.15;;;22.50;99.90;;;;;;5037970;28;20234;-34
2022/06/09 13:44:21;;;;;;;8.68;1.67;;;22.60;99.90;;;;;;5029308;28;20667;-34
2022/06/09 13:47:15;;;;;;;6.90;2.50;;;22.70;99.90;;;;;;5029003;28;20720;-34
2022/06/09 13:50:06;;;;;;;9.77;2.95;;;22.70;99.90;;;;;;5030702;28;20309;-34